Time;durP1;ratioP1;P1;durP2;ratioP2;P2;SDS_P1;SDS_P2;PMS_P1;PMS_P2;Temp;Humidity;BMP_temperature;BMP_pressure;BME280_temperature;BME280_humidity;BME280_pressure;Samples;Min_cycle;Max_cycle;Signal;HPM_P1;HPM_P2
2023/05/30 00:01:50;;;;;;;20.00;6.13;;;11.00;99.90;;;;;;5061125;28;20135;-71
2023/05/30 00:04:16;;;;;;;16.53;5.67;;;11.10;99.90;;;;;;5057138;28;20049;-72
2023/05/30 00:06:42;;;;;;;13.97;5.20;;;11.10;99.90;;;;;;5041634;28;20067;-72
2023/05/30 00:09:07;;;;;;;17.77;5.33;;;11.10;99.90;;;;;;5060092;28;20051;-72
2023/05/30 00:11:33;;;;;;;15.50;4.97;;;11.10;99.90;;;;;;5060127;28;20076;-71
2023/05/30 00:13:59;;;;;;;12.47;4.93;;;11.00;99.90;;;;;;5043048;28;20052;-71
2023/05/30 00:16:25;;;;;;;17.20;5.50;;;11.00;99.90;;;;;;5023939;28;20784;-73
2023/05/30 00:18:56;;;;;;;17.17;6.23;;;11.00;99.90;;;;;;5060580;28;20511;-72
2023/05/30 00:21:22;;;;;;;12.17;5.00;;;11.10;99.90;;;;;;5058461;28;20052;-72
2023/05/30 00:23:48;;;;;;;11.20;4.60;;;11.10;99.90;;;;;;5058303;28;20040;-72
2023/05/30 00:26:15;;;;;;;15.67;5.40;;;11.10;99.90;;;;;;5062962;28;20049;-72
2023/05/30 00:28:42;;;;;;;15.93;4.80;;;11.10;99.90;;;;;;5057854;28;20092;-72
2023/05/30 00:31:08;;;;;;;10.87;5.40;;;11.10;99.90;;;;;;5057355;28;20045;-72
2023/05/30 00:33:34;;;;;;;14.77;5.07;;;11.00;99.90;;;;;;5041277;28;20446;-71
2023/05/30 00:36:00;;;;;;;11.17;4.80;;;11.00;99.90;;;;;;5041951;28;20132;-72
2023/05/30 00:38:26;;;;;;;7.97;5.17;;;11.00;99.90;;;;;;5055807;28;20053;-72
2023/05/30 00:40:52;;;;;;;13.83;5.20;;;11.00;99.90;;;;;;5038335;28;20041;-72
2023/05/30 00:43:22;;;;;;;12.13;5.53;;;11.00;99.90;;;;;;5042286;28;20128;-72
2023/05/30 00:45:52;;;;;;;12.67;5.30;;;11.00;99.90;;;;;;5059987;28;20068;-72
2023/05/30 00:48:18;;;;;;;13.23;4.97;;;11.00;99.90;;;;;;5042336;28;20056;-72
2023/05/30 00:50:44;;;;;;;11.77;4.93;;;11.00;99.90;;;;;;5039964;28;20048;-72
2023/05/30 00:53:10;;;;;;;12.20;5.93;;;11.00;99.90;;;;;;5061024;28;20600;-72
2023/05/30 00:55:37;;;;;;;10.07;4.73;;;11.00;99.90;;;;;;5040309;28;20041;-72
2023/05/30 00:58:03;;;;;;;14.50;5.70;;;10.90;99.90;;;;;;5040383;28;20095;-72
2023/05/30 01:00:29;;;;;;;12.77;4.93;;;10.90;99.90;;;;;;5061204;28;20386;-73
2023/05/30 01:03:00;;;;;;;18.00;5.50;;;10.90;99.90;;;;;;5039323;28;20081;-71
2023/05/30 01:05:29;;;;;;;10.53;4.80;;;10.90;99.90;;;;;;5057266;28;20055;-72
2023/05/30 01:07:55;;;;;;;9.60;5.13;;;10.90;99.90;;;;;;5054797;28;20033;-72
2023/05/30 01:10:21;;;;;;;9.93;4.77;;;10.90;99.90;;;;;;5040397;28;20075;-72
2023/05/30 01:13:00;;;;;;;11.10;5.40;;;10.90;99.90;;;;;;5041188;28;20365;-71
2023/05/30 01:15:52;;;;;;;11.80;5.40;;;10.90;99.90;;;;;;5056489;28;20051;-72
2023/05/30 01:18:27;;;;;;;12.48;5.10;;;10.90;99.90;;;;;;5039891;28;20044;-72
2023/05/30 01:21:02;;;;;;;15.73;5.13;;;10.90;99.90;;;;;;5057921;28;20053;-72
2023/05/30 01:23:49;;;;;;;13.87;5.23;;;10.90;99.90;;;;;;5040231;28;20040;-72
2023/05/30 01:26:39;;;;;;;12.77;5.43;;;10.90;99.90;;;;;;5040936;28;20040;-72
2023/05/30 01:29:06;;;;;;;11.83;5.23;;;10.90;99.90;;;;;;5037083;28;20127;-72
2023/05/30 01:31:33;;;;;;;10.33;5.27;;;10.90;99.90;;;;;;5041128;28;20064;-72
2023/05/30 01:34:00;;;;;;;9.43;5.20;;;10.90;99.90;;;;;;5039274;28;20056;-72
2023/05/30 01:36:29;;;;;;;10.07;4.63;;;10.90;99.90;;;;;;5040254;28;20049;-72
2023/05/30 01:38:55;;;;;;;13.17;5.17;;;10.90;99.90;;;;;;5040560;28;20504;-73
2023/05/30 01:41:34;;;;;;;11.97;4.90;;;10.90;99.90;;;;;;5053722;28;20037;-71
2023/05/30 01:44:13;;;;;;;14.43;4.67;;;10.90;99.90;;;;;;5057368;28;20978;-72
2023/05/30 01:46:45;;;;;;;15.00;5.00;;;10.80;99.90;;;;;;5037674;28;20044;-72
2023/05/30 01:49:34;;;;;;;11.83;4.63;;;10.90;99.90;;;;;;5039172;28;20045;-72
2023/05/30 01:52:05;;;;;;;11.00;5.00;;;10.80;99.90;;;;;;5039597;28;20093;-71
2023/05/30 01:54:33;;;;;;;14.23;5.00;;;10.80;99.90;;;;;;5060715;28;20033;-72
2023/05/30 01:57:19;;;;;;;11.40;4.20;;;10.80;99.90;;;;;;5038163;28;20570;-72
2023/05/30 01:59:47;;;;;;;15.27;5.23;;;10.80;99.90;;;;;;5055172;28;20037;-72
2023/05/30 02:02:13;;;;;;;12.97;5.40;;;10.80;99.90;;;;;;5056560;28;20219;-72
2023/05/30 02:04:39;;;;;;;11.00;5.07;;;10.80;99.90;;;;;;5062968;28;20136;-71
2023/05/30 02:07:05;;;;;;;10.83;5.20;;;10.80;99.90;;;;;;5056460;28;20052;-72
2023/05/30 02:09:30;;;;;;;11.67;4.77;;;10.80;99.90;;;;;;5039908;28;20044;-72
2023/05/30 02:11:56;;;;;;;13.00;4.60;;;10.80;99.90;;;;;;5038101;28;20045;-73
2023/05/30 02:14:22;;;;;;;14.93;5.40;;;10.80;99.90;;;;;;5059536;28;20086;-72
2023/05/30 02:16:48;;;;;;;10.83;5.30;;;10.80;99.90;;;;;;5037225;28;20517;-72
2023/05/30 02:19:14;;;;;;;12.00;5.60;;;10.80;99.90;;;;;;5039111;28;20491;-72
2023/05/30 02:21:40;;;;;;;15.57;4.90;;;10.80;99.90;;;;;;5022199;28;20128;-72
2023/05/30 02:24:06;;;;;;;13.43;4.77;;;10.80;99.90;;;;;;5040262;28;20040;-72
2023/05/30 02:26:34;;;;;;;10.97;4.80;;;10.80;99.90;;;;;;5040600;28;20087;-73
2023/05/30 02:29:00;;;;;;;10.37;5.00;;;10.80;99.90;;;;;;5005766;28;20059;-72
2023/05/30 02:31:26;;;;;;;9.87;4.57;;;10.70;99.90;;;;;;5039391;28;20052;-72
2023/05/30 02:33:51;;;;;;;12.27;5.00;;;10.70;99.90;;;;;;5056822;28;20048;-71
2023/05/30 02:36:17;;;;;;;13.33;5.17;;;10.70;99.90;;;;;;5038341;28;20522;-72
2023/05/30 02:38:43;;;;;;;12.90;5.17;;;10.80;99.90;;;;;;5057613;28;20053;-72
2023/05/30 02:41:08;;;;;;;13.03;5.27;;;10.80;99.90;;;;;;5053690;28;20042;-72
2023/05/30 02:43:35;;;;;;;12.33;4.93;;;10.70;99.90;;;;;;5057991;28;20102;-73
2023/05/30 02:46:01;;;;;;;10.57;5.00;;;10.70;99.90;;;;;;5035003;28;20041;-72
2023/05/30 02:48:26;;;;;;;12.60;5.40;;;10.80;99.90;;;;;;5025969;28;20048;-71
2023/05/30 02:50:52;;;;;;;14.03;5.20;;;10.80;99.90;;;;;;5037743;28;20649;-73
2023/05/30 02:53:18;;;;;;;13.33;5.03;;;10.80;99.90;;;;;;5054085;28;20045;-72
2023/05/30 02:55:44;;;;;;;11.63;4.90;;;10.80;99.90;;;;;;5037903;28;20033;-72
2023/05/30 02:58:11;;;;;;;10.57;4.83;;;10.70;99.90;;;;;;5055792;28;20076;-72
2023/05/30 03:00:38;;;;;;;12.47;5.03;;;10.70;99.90;;;;;;5039147;28;20045;-72
2023/05/30 03:03:04;;;;;;;12.77;5.10;;;10.70;99.90;;;;;;5053465;28;20052;-72
2023/05/30 03:05:29;;;;;;;15.80;5.63;;;10.70;99.90;;;;;;5039158;28;20044;-72
2023/05/30 03:07:55;;;;;;;18.17;5.60;;;10.70;99.90;;;;;;5019943;28;20128;-72
2023/05/30 03:10:21;;;;;;;10.80;5.03;;;10.70;99.90;;;;;;5039140;28;20155;-72
2023/05/30 03:12:47;;;;;;;9.90;5.33;;;10.70;99.90;;;;;;5038707;28;20144;-72
2023/05/30 03:15:13;;;;;;;11.70;5.30;;;10.70;99.90;;;;;;5033012;28;20049;-72
2023/05/30 03:17:41;;;;;;;14.50;5.30;;;10.70;99.90;;;;;;5057365;28;20037;-72
2023/05/30 03:20:07;;;;;;;15.83;5.70;;;10.70;99.90;;;;;;5033194;28;20083;-72
2023/05/30 03:22:34;;;;;;;10.57;5.40;;;10.70;99.90;;;;;;5041164;28;20040;-72
2023/05/30 03:25:00;;;;;;;12.50;5.23;;;10.70;99.90;;;;;;5019994;28;20089;-71
2023/05/30 03:27:25;;;;;;;15.90;5.60;;;10.70;99.90;;;;;;5039297;28;20067;-71
2023/05/30 03:29:52;;;;;;;15.67;5.50;;;10.70;99.90;;;;;;5039110;28;20053;-71
2023/05/30 03:32:18;;;;;;;9.57;4.90;;;10.70;99.90;;;;;;5037754;28;20045;-71
2023/05/30 03:34:46;;;;;;;21.97;5.43;;;10.70;99.90;;;;;;5038845;28;20052;-71
2023/05/30 03:37:12;;;;;;;10.73;5.20;;;10.70;99.90;;;;;;5036282;28;20045;-71
2023/05/30 03:39:38;;;;;;;13.63;5.87;;;10.80;99.90;;;;;;5058364;28;20041;-72
2023/05/30 03:42:04;;;;;;;9.43;5.40;;;10.70;99.90;;;;;;5029998;28;20105;-72
2023/05/30 03:44:30;;;;;;;17.30;5.80;;;10.70;99.90;;;;;;5038545;28;20484;-70
2023/05/30 03:46:56;;;;;;;12.10;5.30;;;10.70;99.90;;;;;;5038397;28;20037;-71
2023/05/30 03:49:21;;;;;;;16.17;5.27;;;10.70;99.90;;;;;;5039207;28;20033;-71
2023/05/30 03:51:47;;;;;;;15.33;6.10;;;10.70;99.90;;;;;;5058369;28;20059;-71
2023/05/30 03:54:13;;;;;;;14.67;5.80;;;10.70;99.90;;;;;;5036562;28;20127;-71
2023/05/30 03:56:39;;;;;;;13.43;5.40;;;10.70;99.90;;;;;;5032090;28;20037;-71
2023/05/30 03:59:04;;;;;;;15.90;5.80;;;10.70;99.90;;;;;;5019013;28;20049;-70
2023/05/30 04:01:30;;;;;;;13.73;5.27;;;10.70;99.90;;;;;;5037896;28;20045;-71
2023/05/30 04:03:57;;;;;;;14.97;5.80;;;10.70;99.90;;;;;;5038180;28;20128;-71
2023/05/30 04:06:24;;;;;;;14.33;5.37;;;10.80;99.90;;;;;;5060483;28;20053;-71
2023/05/30 04:08:50;;;;;;;16.00;5.73;;;10.80;99.90;;;;;;5027425;28;20060;-73
2023/05/30 04:11:16;;;;;;;13.43;5.07;;;10.80;99.90;;;;;;5064476;28;20055;-71
2023/05/30 04:13:41;;;;;;;11.33;5.27;;;10.80;99.90;;;;;;5042111;28;20128;-71
2023/05/30 04:16:07;;;;;;;15.07;5.20;;;10.80;99.90;;;;;;5040040;28;20101;-72
2023/05/30 04:18:33;;;;;;;11.30;5.30;;;10.80;99.90;;;;;;5040182;28;20114;-71
2023/05/30 04:20:59;;;;;;;13.87;5.87;;;10.80;99.90;;;;;;5056087;28;20109;-71
2023/05/30 04:23:25;;;;;;;12.00;5.50;;;10.80;99.90;;;;;;5058851;28;20052;-72
2023/05/30 04:25:51;;;;;;;12.97;5.60;;;10.90;99.90;;;;;;5042328;28;20045;-71
2023/05/30 04:28:17;;;;;;;13.17;5.43;;;10.90;99.90;;;;;;5040470;28;20174;-72
2023/05/30 04:30:48;;;;;;;15.07;5.77;;;10.90;99.90;;;;;;5061908;28;20072;-70
2023/05/30 04:33:15;;;;;;;13.40;5.97;;;10.90;99.90;;;;;;5055664;28;20045;-71
2023/05/30 04:35:44;;;;;;;10.23;5.60;;;10.90;99.90;;;;;;5043150;28;20311;-72
2023/05/30 04:38:15;;;;;;;12.70;5.87;;;11.00;99.90;;;;;;5040909;28;20114;-70
2023/05/30 04:40:42;;;;;;;11.93;5.33;;;11.00;99.90;;;;;;5041003;28;20096;-71
2023/05/30 04:43:08;;;;;;;13.37;5.80;;;11.00;99.90;;;;;;5062640;28;20048;-70
2023/05/30 04:45:36;;;;;;;12.40;5.37;;;11.00;99.90;;;;;;5037368;28;20045;-70
2023/05/30 04:48:03;;;;;;;22.20;6.40;;;11.00;99.90;;;;;;5064268;28;20044;-73
2023/05/30 04:50:29;;;;;;;11.90;5.83;;;11.10;99.90;;;;;;5026520;28;20045;-72
2023/05/30 04:52:55;;;;;;;16.20;5.97;;;11.10;99.90;;;;;;5011065;28;20510;-70
2023/05/30 04:55:21;;;;;;;14.47;5.33;;;11.20;99.90;;;;;;5058096;28;20101;-71
2023/05/30 04:57:47;;;;;;;15.83;5.47;;;11.20;99.90;;;;;;5043807;28;20041;-71
2023/05/30 05:00:16;;;;;;;10.60;5.40;;;11.20;99.90;;;;;;5059954;28;20188;-72
2023/05/30 05:02:43;;;;;;;12.73;5.30;;;11.30;99.90;;;;;;5062996;28;20051;-73
2023/05/30 05:05:09;;;;;;;14.60;5.07;;;11.30;99.90;;;;;;5046255;28;20036;-71
2023/05/30 05:07:35;;;;;;;13.13;5.67;;;11.40;99.90;;;;;;5030642;28;20060;-72
2023/05/30 05:10:02;;;;;;;15.13;6.07;;;11.30;99.90;;;;;;5040437;28;20051;-72
2023/05/30 05:12:27;;;;;;;12.20;5.37;;;11.40;99.90;;;;;;5059122;28;20040;-72
2023/05/30 05:14:55;;;;;;;17.53;5.90;;;11.30;99.90;;;;;;5056647;28;20524;-71
2023/05/30 05:17:21;;;;;;;13.67;5.23;;;11.40;99.90;;;;;;5055436;28;20060;-70
2023/05/30 05:19:46;;;;;;;14.23;5.60;;;11.40;99.90;;;;;;5059133;28;20039;-70
2023/05/30 05:22:12;;;;;;;12.50;5.83;;;11.40;99.90;;;;;;5052325;28;20041;-70
2023/05/30 05:24:38;;;;;;;9.60;5.50;;;11.40;99.90;;;;;;5054998;28;20045;-70
2023/05/30 05:27:05;;;;;;;12.27;5.40;;;11.40;99.90;;;;;;5020491;28;20040;-69
2023/05/30 05:29:31;;;;;;;13.97;5.87;;;11.50;99.90;;;;;;5035886;28;20914;-71
2023/05/30 05:31:56;;;;;;;15.23;5.00;;;11.50;99.90;;;;;;5056221;28;20041;-69
2023/05/30 05:34:22;;;;;;;15.33;5.20;;;11.50;99.90;;;;;;5037835;28;20068;-69
2023/05/30 05:36:48;;;;;;;13.63;5.13;;;11.50;99.90;;;;;;5032368;28;20054;-70
2023/05/30 05:39:14;;;;;;;16.47;5.10;;;11.60;99.90;;;;;;5039074;28;20079;-70
2023/05/30 05:41:39;;;;;;;14.43;5.87;;;11.60;99.90;;;;;;5035293;28;20562;-69
2023/05/30 05:44:05;;;;;;;16.17;5.60;;;11.60;99.90;;;;;;5035688;28;20625;-69
2023/05/30 05:46:31;;;;;;;14.50;5.30;;;11.60;99.90;;;;;;5036602;28;20041;-69
2023/05/30 05:48:56;;;;;;;15.20;5.60;;;11.60;99.90;;;;;;5042337;28;20069;-68
2023/05/30 05:51:22;;;;;;;17.47;5.47;;;11.60;99.90;;;;;;5041283;28;20408;-69
2023/05/30 05:53:48;;;;;;;15.50;5.60;;;11.60;99.90;;;;;;5036318;28;20047;-69
2023/05/30 05:56:13;;;;;;;15.17;5.30;;;11.60;99.90;;;;;;5038168;28;20038;-70
2023/05/30 05:58:39;;;;;;;11.30;5.30;;;11.60;99.90;;;;;;5043410;28;20045;-69
2023/05/30 06:01:05;;;;;;;13.27;5.30;;;11.60;99.90;;;;;;5042746;28;20048;-70
2023/05/30 06:03:31;;;;;;;10.80;5.00;;;11.60;99.90;;;;;;5013556;28;20231;-69
2023/05/30 06:05:57;;;;;;;15.27;5.70;;;11.60;99.90;;;;;;5018517;28;20042;-70
2023/05/30 06:08:23;;;;;;;12.90;5.73;;;11.60;99.90;;;;;;5020929;28;20073;-69
2023/05/30 06:10:48;;;;;;;15.30;6.15;;;11.60;99.90;;;;;;5014892;28;20037;-70
2023/05/30 06:13:15;;;;;;;12.67;5.07;;;11.60;99.90;;;;;;5021409;28;20037;-71
2023/05/30 06:15:41;;;;;;;12.23;5.73;;;11.60;99.90;;;;;;5021986;28;20458;-70
2023/05/30 06:18:06;;;;;;;12.60;5.27;;;11.60;99.90;;;;;;5020290;28;20045;-70
2023/05/30 06:20:32;;;;;;;13.80;5.47;;;11.60;99.90;;;;;;5005361;28;20442;-70
2023/05/30 06:22:58;;;;;;;14.97;5.10;;;11.60;99.90;;;;;;5019779;28;20081;-70
2023/05/30 06:25:26;;;;;;;10.77;4.37;;;11.60;99.90;;;;;;5019249;28;20049;-70
2023/05/30 06:27:52;;;;;;;12.50;5.00;;;11.70;99.90;;;;;;5024031;28;20098;-72
2023/05/30 06:30:18;;;;;;;13.67;4.97;;;11.70;99.90;;;;;;5019288;28;20424;-71
2023/05/30 06:32:43;;;;;;;12.87;4.90;;;11.60;99.90;;;;;;5020843;28;20140;-70
2023/05/30 06:35:10;;;;;;;13.43;5.07;;;11.60;99.90;;;;;;5031127;28;20063;-70
2023/05/30 06:37:35;;;;;;;8.87;4.67;;;11.60;99.90;;;;;;5018565;28;20049;-70
2023/05/30 06:40:02;;;;;;;11.97;5.40;;;11.60;99.90;;;;;;5039985;28;20056;-70
2023/05/30 06:42:28;;;;;;;11.93;5.40;;;11.60;99.90;;;;;;5042664;28;20056;-70
2023/05/30 06:44:53;;;;;;;10.57;4.83;;;11.60;99.90;;;;;;5055540;28;20092;-69
2023/05/30 06:47:19;;;;;;;12.13;5.23;;;11.60;99.90;;;;;;5025949;28;20056;-71
2023/05/30 06:49:45;;;;;;;11.23;4.73;;;11.60;99.90;;;;;;5060149;28;20138;-71
2023/05/30 06:52:11;;;;;;;9.83;4.70;;;11.60;99.90;;;;;;5057564;28;20040;-70
2023/05/30 06:54:36;;;;;;;12.27;4.77;;;11.70;99.90;;;;;;5054180;28;20097;-70
2023/05/30 06:57:04;;;;;;;14.70;4.47;;;11.70;99.90;;;;;;5023318;28;20064;-71
2023/05/30 06:59:30;;;;;;;10.00;4.80;;;11.70;99.90;;;;;;5053866;28;20061;-70
2023/05/30 07:01:56;;;;;;;8.97;4.60;;;11.60;99.90;;;;;;5039171;28;20665;-71
2023/05/30 07:04:23;;;;;;;8.77;4.60;;;11.60;99.90;;;;;;5057061;28;20052;-70
2023/05/30 07:06:49;;;;;;;10.23;4.80;;;11.70;99.90;;;;;;5055727;28;20105;-70
2023/05/30 07:09:15;;;;;;;6.67;4.33;;;11.70;99.90;;;;;;5038656;28;20099;-71
2023/05/30 07:11:41;;;;;;;9.83;4.93;;;11.70;99.90;;;;;;5055359;28;20052;-70
2023/05/30 07:14:06;;;;;;;9.53;5.10;;;11.70;99.90;;;;;;5056999;28;20045;-70
2023/05/30 07:16:32;;;;;;;13.47;4.73;;;11.70;99.90;;;;;;5056936;28;20084;-71
2023/05/30 07:18:58;;;;;;;9.03;4.57;;;11.70;99.90;;;;;;5055644;28;20044;-70
2023/05/30 07:21:28;;;;;;;11.80;4.53;;;11.70;99.90;;;;;;5052510;28;20037;-70
2023/05/30 07:23:53;;;;;;;10.50;4.50;;;11.60;99.90;;;;;;5053943;28;20155;-70
2023/05/30 07:26:19;;;;;;;9.37;4.50;;;11.70;99.90;;;;;;5057471;28;20040;-70
2023/05/30 07:28:45;;;;;;;11.67;4.67;;;11.70;99.90;;;;;;5035922;28;20041;-70
2023/05/30 07:31:11;;;;;;;8.47;4.27;;;11.70;99.90;;;;;;5056976;28;20049;-70
2023/05/30 07:33:36;;;;;;;8.20;4.23;;;11.70;99.90;;;;;;5055807;28;20040;-70
2023/05/30 07:36:02;;;;;;;8.27;4.40;;;11.60;99.90;;;;;;5054393;28;20075;-70
2023/05/30 07:38:28;;;;;;;8.57;4.77;;;11.60;99.90;;;;;;5052834;28;20359;-70
2023/05/30 07:40:54;;;;;;;10.77;4.17;;;11.70;99.90;;;;;;5057343;28;20072;-70
2023/05/30 07:43:19;;;;;;;9.50;4.23;;;11.70;99.90;;;;;;5041086;28;20041;-71
2023/05/30 07:45:45;;;;;;;8.30;4.37;;;11.70;99.90;;;;;;5040162;28;20134;-69
2023/05/30 07:48:11;;;;;;;9.20;4.37;;;11.70;99.90;;;;;;5058417;28;20151;-70
2023/05/30 07:50:36;;;;;;;7.90;3.90;;;11.70;99.90;;;;;;5039344;28;20040;-70
2023/05/30 07:53:02;;;;;;;9.43;3.80;;;11.80;99.90;;;;;;5056904;28;20049;-71
2023/05/30 07:55:28;;;;;;;8.70;4.40;;;11.80;99.90;;;;;;5039055;28;20089;-70
2023/05/30 07:57:54;;;;;;;6.50;3.97;;;11.80;99.90;;;;;;5039876;28;20139;-70
2023/05/30 08:00:20;;;;;;;6.50;3.93;;;11.80;99.90;;;;;;5057939;28;20045;-71
2023/05/30 08:02:45;;;;;;;6.67;3.47;;;11.80;99.90;;;;;;5058037;28;20049;-70
2023/05/30 08:05:11;;;;;;;7.87;3.60;;;11.80;99.90;;;;;;5040433;28;20272;-70
2023/05/30 08:07:37;;;;;;;5.43;2.80;;;11.80;99.90;;;;;;5057089;28;20044;-71
2023/05/30 08:10:03;;;;;;;7.17;3.23;;;11.80;99.90;;;;;;5024942;28;20044;-71
2023/05/30 08:12:29;;;;;;;7.60;2.80;;;11.80;99.90;;;;;;5057379;28;20047;-70
2023/05/30 08:14:56;;;;;;;5.23;2.87;;;11.70;99.90;;;;;;5058673;28;20041;-71
2023/05/30 08:17:25;;;;;;;8.87;2.60;;;11.80;99.90;;;;;;5022791;28;20037;-70
2023/05/30 08:19:55;;;;;;;8.83;3.00;;;11.80;99.90;;;;;;5057848;28;20448;-70
2023/05/30 08:22:22;;;;;;;7.77;2.90;;;11.90;99.90;;;;;;5060906;28;20084;-70
2023/05/30 08:24:55;;;;;;;4.83;2.43;;;11.90;99.90;;;;;;5055872;28;20539;-70
2023/05/30 08:27:23;;;;;;;6.20;2.97;;;11.90;99.90;;;;;;5056296;28;20076;-70
2023/05/30 08:29:49;;;;;;;7.13;3.10;;;11.90;99.90;;;;;;5039871;28;20083;-71
2023/05/30 08:32:16;;;;;;;7.03;3.30;;;12.00;99.90;;;;;;5037868;28;20045;-69
2023/05/30 08:34:42;;;;;;;6.23;3.43;;;12.00;99.90;;;;;;5039584;28;20047;-70
2023/05/30 08:37:08;;;;;;;4.88;3.08;;;12.00;99.90;;;;;;5056907;28;20053;-70
2023/05/30 08:39:33;;;;;;;7.80;3.03;;;12.10;99.90;;;;;;5057609;28;20076;-70
2023/05/30 08:42:00;;;;;;;7.47;3.60;;;12.10;99.90;;;;;;5055753;28;20052;-70
2023/05/30 08:44:27;;;;;;;3.35;2.53;;;12.20;99.90;;;;;;5056930;28;20041;-71
2023/05/30 08:46:54;;;;;;;5.55;2.80;;;12.20;99.90;;;;;;5039742;28;20643;-70
2023/05/30 08:49:24;;;;;;;10.30;3.72;;;12.20;99.90;;;;;;5057773;28;20462;-71
2023/05/30 08:51:52;;;;;;;5.43;3.03;;;12.20;99.90;;;;;;5057087;28;20088;-71
2023/05/30 08:54:22;;;;;;;6.47;3.05;;;12.20;99.90;;;;;;5040492;28;20045;-70
2023/05/30 08:57:04;;;;;;;6.65;2.60;;;12.30;99.90;;;;;;5058076;28;20053;-71
2023/05/30 08:59:31;;;;;;;4.75;2.45;;;12.40;99.90;;;;;;5046244;28;20033;-71
2023/05/30 09:01:58;;;;;;;5.75;2.53;;;12.40;99.90;;;;;;5055773;28;20125;-70
2023/05/30 09:04:25;;;;;;;11.02;3.10;;;12.40;99.90;;;;;;5057823;28;20072;-70
2023/05/30 09:06:54;;;;;;;7.13;2.65;;;12.40;99.90;;;;;;5060047;28;20049;-71
2023/05/30 09:09:21;;;;;;;5.00;2.75;;;12.40;99.90;;;;;;5042773;28;20339;-71
2023/05/30 09:11:47;;;;;;;10.02;2.58;;;12.40;99.90;;;;;;5029075;28;20442;-70
2023/05/30 09:14:14;;;;;;;6.53;2.72;;;12.40;99.90;;;;;;5058231;28;20089;-71
2023/05/30 09:16:39;;;;;;;5.45;2.42;;;12.50;99.90;;;;;;5055662;28;20041;-71
2023/05/30 09:19:07;;;;;;;4.82;2.10;;;12.50;99.90;;;;;;5039624;28;20106;-70
2023/05/30 09:21:34;;;;;;;3.47;2.35;;;12.50;99.90;;;;;;5026601;28;20045;-70
2023/05/30 09:24:04;;;;;;;3.17;2.42;;;12.50;99.90;;;;;;5022286;28;20033;-71
2023/05/30 09:26:32;;;;;;;3.78;2.33;;;12.50;99.90;;;;;;5046929;28;20055;-70
2023/05/30 09:29:09;;;;;;;4.82;2.40;;;12.60;99.90;;;;;;5038177;28;20053;-71
2023/05/30 09:31:36;;;;;;;3.88;2.50;;;12.50;99.90;;;;;;5058384;28;20036;-71
2023/05/30 09:34:02;;;;;;;5.10;2.58;;;12.40;99.90;;;;;;5059668;28;20464;-70
2023/05/30 09:36:28;;;;;;;4.40;2.40;;;12.40;99.90;;;;;;5058692;28;20041;-70
2023/05/30 09:38:53;;;;;;;5.18;3.10;;;12.40;99.90;;;;;;5037857;28;20534;-71
2023/05/30 09:41:20;;;;;;;4.90;2.50;;;12.30;99.90;;;;;;5055502;28;20108;-71
2023/05/30 09:43:52;;;;;;;4.40;2.85;;;12.30;99.90;;;;;;5037859;28;20070;-70
2023/05/30 09:46:19;;;;;;;3.70;2.78;;;12.30;99.90;;;;;;5054232;28;20060;-70
2023/05/30 09:48:45;;;;;;;6.93;3.13;;;12.30;99.90;;;;;;5038345;28;20048;-71
2023/05/30 09:51:11;;;;;;;4.38;2.85;;;12.40;99.90;;;;;;5073875;28;20044;-71
2023/05/30 09:53:37;;;;;;;5.95;2.53;;;12.50;99.90;;;;;;5059098;28;20044;-70
2023/05/30 09:56:03;;;;;;;4.18;2.85;;;12.60;99.90;;;;;;5053931;28;20045;-70
2023/05/30 09:58:29;;;;;;;6.88;2.78;;;12.70;99.90;;;;;;5053239;28;20102;-71
2023/05/30 10:00:57;;;;;;;4.07;2.50;;;12.80;99.90;;;;;;5055712;28;20127;-70
2023/05/30 10:03:45;;;;;;;3.28;2.63;;;12.80;99.90;;;;;;5054297;28;20037;-70
2023/05/30 10:06:15;;;;;;;3.80;2.17;;;12.70;99.90;;;;;;5060401;28;20151;-70
2023/05/30 10:08:45;;;;;;;3.35;2.08;;;12.60;99.90;;;;;;5047309;28;20040;-71
2023/05/30 10:11:12;;;;;;;3.38;1.48;;;12.60;99.90;;;;;;5036602;28;20086;-70
2023/05/30 10:13:38;;;;;;;2.40;1.42;;;12.60;99.90;;;;;;5055188;28;20049;-70
2023/05/30 10:16:17;;;;;;;1.63;1.40;;;12.60;99.90;;;;;;5054096;28;20045;-71
2023/05/30 10:18:56;;;;;;;3.53;1.30;;;12.50;99.90;;;;;;5021967;28;20048;-69
2023/05/30 10:21:25;;;;;;;1.58;1.30;;;12.60;99.90;;;;;;5041280;28;20088;-70
2023/05/30 10:23:53;;;;;;;1.98;1.48;;;12.60;99.90;;;;;;5035861;28;20052;-70
2023/05/30 10:26:23;;;;;;;1.80;1.50;;;12.60;99.90;;;;;;5055172;28;20128;-70
2023/05/30 10:28:51;;;;;;;2.10;1.25;;;12.70;99.90;;;;;;5053772;28;20084;-71
2023/05/30 10:31:17;;;;;;;1.75;1.35;;;12.80;99.90;;;;;;5052329;28;20049;-71
2023/05/30 10:33:48;;;;;;;1.40;1.30;;;12.90;99.90;;;;;;5034257;28;20048;-70
2023/05/30 10:36:14;;;;;;;2.08;1.25;;;13.10;99.90;;;;;;5052005;28;20110;-71
2023/05/30 10:39:02;;;;;;;1.92;1.25;;;13.20;99.90;;;;;;5029602;28;20057;-70
2023/05/30 10:41:36;;;;;;;2.83;1.58;;;13.40;99.90;;;;;;5035419;28;20505;-71
2023/05/30 10:44:41;;;;;;;3.25;1.80;;;13.40;99.90;;;;;;5037849;28;20055;-70
2023/05/30 10:47:27;;;;;;;2.90;1.30;;;13.30;99.90;;;;;;4994501;28;20057;-69
2023/05/30 10:49:56;;;;;;;1.80;1.30;;;13.30;99.90;;;;;;5053833;28;20041;-71
2023/05/30 10:52:33;;;;;;;1.83;1.20;;;13.20;99.90;;;;;;5054476;28;20496;-71
2023/05/30 10:55:00;;;;;;;1.52;1.35;;;13.20;99.90;;;;;;5050449;28;20037;-71
2023/05/30 10:57:31;;;;;;;2.60;1.30;;;13.10;99.90;;;;;;5037061;28;20041;-71
2023/05/30 11:00:10;;;;;;;1.67;1.58;;;13.00;99.90;;;;;;5053937;28;20069;-71
2023/05/30 11:02:38;;;;;;;2.47;1.60;;;12.90;99.90;;;;;;5021451;28;20056;-70
2023/05/30 11:05:07;;;;;;;3.47;1.70;;;12.90;99.90;;;;;;5054200;28;20041;-70
2023/05/30 11:07:41;;;;;;;1.80;1.48;;;12.90;99.90;;;;;;5052674;28;20102;-71
2023/05/30 11:10:10;;;;;;;2.33;1.50;;;12.80;99.90;;;;;;5052068;28;20266;-71
2023/05/30 11:12:48;;;;;;;1.80;1.67;;;12.90;99.90;;;;;;5028700;28;20134;-70
2023/05/30 11:15:15;;;;;;;4.00;1.55;;;12.90;99.90;;;;;;5053520;28;20040;-71
2023/05/30 11:17:41;;;;;;;4.55;1.70;;;13.00;99.90;;;;;;5034429;28;20948;-71
2023/05/30 11:20:20;;;;;;;2.67;1.92;;;13.00;99.90;;;;;;5026793;28;20044;-71
2023/05/30 11:23:01;;;;;;;2.30;1.73;;;13.10;99.90;;;;;;5037503;28;20049;-71
2023/05/30 11:25:33;;;;;;;2.65;2.13;;;13.10;99.90;;;;;;5059249;28;20051;-71
2023/05/30 11:28:05;;;;;;;1.92;1.67;;;13.20;99.90;;;;;;5031247;28;20044;-71
2023/05/30 11:30:33;;;;;;;3.22;1.77;;;13.30;99.90;;;;;;5030782;28;20085;-71
2023/05/30 11:32:59;;;;;;;3.90;1.60;;;13.30;99.90;;;;;;5053775;28;20114;-71
2023/05/30 11:35:28;;;;;;;1.77;1.67;;;13.30;99.90;;;;;;5054706;28;20064;-71
2023/05/30 11:37:56;;;;;;;3.58;2.05;;;13.30;99.90;;;;;;5053348;28;20049;-71
2023/05/30 11:40:25;;;;;;;4.63;1.95;;;13.30;99.90;;;;;;5054634;28;20060;-70
2023/05/30 11:42:55;;;;;;;2.00;1.80;;;13.30;99.90;;;;;;5055426;28;20053;-71
2023/05/30 11:45:26;;;;;;;4.72;2.30;;;13.30;99.90;;;;;;5052807;28;20548;-71
2023/05/30 11:47:52;;;;;;;5.03;2.10;;;13.30;99.90;;;;;;5054560;28;20052;-70
2023/05/30 11:50:21;;;;;;;4.47;1.90;;;13.30;99.90;;;;;;5040635;28;20465;-70
2023/05/30 11:52:47;;;;;;;5.88;1.95;;;13.40;99.90;;;;;;5057900;28;20045;-70
2023/05/30 11:55:12;;;;;;;3.17;1.80;;;13.40;99.90;;;;;;5053247;28;20377;-71
2023/05/30 11:57:38;;;;;;;2.45;1.60;;;13.50;99.90;;;;;;5053910;28;20034;-70
2023/05/30 12:00:11;;;;;;;2.65;1.83;;;13.60;99.90;;;;;;5034783;28;20037;-71
2023/05/30 12:02:38;;;;;;;1.90;1.65;;;13.70;99.90;;;;;;5027070;28;20469;-73
2023/05/30 12:05:04;;;;;;;3.05;1.83;;;13.70;99.90;;;;;;5050602;28;20124;-71
2023/05/30 12:07:31;;;;;;;2.55;1.70;;;13.70;99.90;;;;;;5034916;28;20045;-71
2023/05/30 12:09:58;;;;;;;2.75;1.90;;;13.70;99.90;;;;;;5042857;28;20033;-71
2023/05/30 12:12:23;;;;;;;2.63;1.70;;;13.80;99.90;;;;;;5033199;28;20503;-70
2023/05/30 12:14:55;;;;;;;4.28;2.20;;;13.70;99.90;;;;;;5034925;28;20049;-70
2023/05/30 12:17:21;;;;;;;2.92;1.92;;;13.70;99.90;;;;;;5049103;28;20044;-70
2023/05/30 12:19:56;;;;;;;5.43;2.30;;;13.70;99.90;;;;;;5034836;28;20413;-71
2023/05/30 12:22:24;;;;;;;3.80;1.67;;;13.80;99.90;;;;;;5036469;28;20146;-70
2023/05/30 12:24:51;;;;;;;2.50;1.45;;;13.70;99.90;;;;;;5057988;28;20104;-70
2023/05/30 12:27:21;;;;;;;4.13;1.85;;;13.70;99.90;;;;;;5054485;28;20092;-71
2023/05/30 12:29:46;;;;;;;3.35;1.70;;;13.70;99.90;;;;;;5038067;28;20044;-70
2023/05/30 12:32:12;;;;;;;1.90;1.70;;;13.80;99.90;;;;;;5039407;28;20327;-70
2023/05/30 12:34:45;;;;;;;2.00;1.67;;;13.70;99.90;;;;;;5056721;28;20437;-70
2023/05/30 12:37:13;;;;;;;2.38;1.60;;;13.80;99.90;;;;;;5051862;28;20422;-70
2023/05/30 12:39:53;;;;;;;1.73;1.50;;;13.90;99.90;;;;;;5058127;28;20613;-71
2023/05/30 12:42:27;;;;;;;3.72;1.80;;;14.00;99.90;;;;;;5037717;28;20060;-71
2023/05/30 12:44:57;;;;;;;1.92;1.65;;;14.00;99.90;;;;;;5038294;28;20046;-71